createdAt,value
2023-02-06T00:00:31.675Z,102885.44
2023-02-06T00:04:53.715Z,102884.00
2023-02-06T00:08:55.698Z,102886.72
2023-02-06T00:12:57.946Z,102880.72
2023-02-06T00:17:01.099Z,102882.72
2023-02-06T00:21:03.372Z,102881.75
2023-02-06T00:25:06.039Z,102889.66
2023-02-06T00:29:08.120Z,102894.63
2023-02-06T00:33:10.285Z,102896.19
2023-02-06T00:37:12.383Z,102891.91
2023-02-06T00:41:14.476Z,102889.34
2023-02-06T00:45:16.911Z,102892.94
2023-02-06T00:49:18.939Z,102893.09
2023-02-06T00:53:22.121Z,102881.25
2023-02-06T00:57:24.112Z,102892.59
2023-02-06T01:01:27.329Z,102889.38
2023-02-06T01:05:30.172Z,102881.06
2023-02-06T01:09:32.438Z,102873.41
2023-02-06T01:13:34.548Z,102869.59
2023-02-06T01:17:37.770Z,102857.25
2023-02-06T01:21:39.929Z,102877.84
2023-02-06T01:25:41.926Z,102882.31
2023-02-06T01:29:44.234Z,102868.38
2023-02-06T01:33:47.682Z,102864.78
2023-02-06T01:37:49.780Z,102858.72
2023-02-06T01:41:51.965Z,102851.19
2023-02-06T01:45:54.294Z,102843.59
2023-02-06T01:49:56.270Z,102855.13
2023-02-06T01:54:02.385Z,102843.22
2023-02-06T01:58:07.666Z,102841.31
2023-02-06T02:02:11.180Z,102847.06
2023-02-06T02:06:16.750Z,102853.97
2023-02-06T02:10:18.849Z,102854.81
2023-02-06T02:14:21.080Z,102852.50
2023-02-06T02:18:37.800Z,102851.63
2023-02-06T02:23:01.309Z,102846.22
2023-02-06T02:27:12.239Z,102846.22
2023-02-06T02:31:39.401Z,102847.88
2023-02-06T02:35:55.453Z,102858.75
2023-02-06T02:40:16.212Z,102859.78
2023-02-06T02:44:39.968Z,102875.19
2023-02-06T02:48:46.170Z,102875.13
2023-02-06T02:52:48.751Z,102881.69
2023-02-06T02:56:50.799Z,102881.38
2023-02-06T03:00:59.054Z,102880.31
2023-02-06T03:05:05.905Z,102875.50
2023-02-06T03:09:23.044Z,102877.38
2023-02-06T03:13:44.757Z,102871.38
2023-02-06T03:17:53.955Z,102863.25
2023-02-06T03:21:56.195Z,102881.44
2023-02-06T03:26:02.694Z,102868.34
2023-02-06T03:30:08.226Z,102868.91
2023-02-06T03:34:17.011Z,102867.09
2023-02-06T03:38:19.074Z,102863.72
2023-02-06T03:42:22.657Z,102868.34
2023-02-06T03:46:28.572Z,102863.00
2023-02-06T03:50:32.690Z,102856.38
2023-02-06T03:54:39.602Z,102859.34
2023-02-06T03:58:41.716Z,102864.19
2023-02-06T04:02:47.663Z,102873.91
2023-02-06T04:06:49.656Z,102869.19
2023-02-06T04:10:51.733Z,102874.22
2023-02-06T04:14:53.952Z,102881.34
2023-02-06T04:18:56.224Z,102883.81
2023-02-06T04:22:58.863Z,102883.13
2023-02-06T04:27:00.925Z,102878.38
2023-02-06T04:31:03.178Z,102876.41
2023-02-06T04:35:05.603Z,102887.38
2023-02-06T04:39:08.009Z,102888.91
2023-02-06T04:43:10.128Z,102879.56
2023-02-06T04:47:12.164Z,102875.88
2023-02-06T04:51:14.614Z,102874.03
2023-02-06T04:55:16.726Z,102856.69
2023-02-06T04:59:18.762Z,102863.44
2023-02-06T05:03:20.809Z,102867.91
2023-02-06T05:07:22.892Z,102867.75
2023-02-06T05:11:25.225Z,102879.34
2023-02-06T05:15:27.200Z,102879.97
2023-02-06T05:19:29.194Z,102890.44
2023-02-06T05:23:32.497Z,102891.53
2023-02-06T05:27:34.520Z,102895.31
2023-02-06T05:31:36.685Z,102897.84
2023-02-06T05:35:40.861Z,102900.22
2023-02-06T05:39:42.868Z,102895.94
2023-02-06T05:43:44.909Z,102884.47
2023-02-06T05:47:47.008Z,102896.09
2023-02-06T05:51:49.065Z,102898.16
2023-02-06T05:55:51.069Z,102897.75
2023-02-06T05:59:53.084Z,102895.38
2023-02-06T06:03:55.707Z,102901.06
2023-02-06T06:07:57.768Z,102900.56
2023-02-06T06:11:59.798Z,102902.00
2023-02-06T06:16:01.967Z,102901.44
2023-02-06T06:20:04.566Z,102895.03
2023-02-06T06:24:06.760Z,102898.31
2023-02-06T06:28:08.846Z,102893.66
2023-02-06T06:32:11.006Z,102892.78
2023-02-06T06:36:14.587Z,102888.66
2023-02-06T06:40:16.975Z,102889.84
2023-02-06T06:44:18.940Z,102896.31
2023-02-06T06:48:21.142Z,102895.72
2023-02-06T06:52:25.666Z,102887.50
2023-02-06T06:56:27.830Z,102875.13
2023-02-06T07:00:29.848Z,102870.75
2023-02-06T07:04:33.137Z,102870.88
2023-02-06T07:08:36.002Z,102878.38
2023-02-06T07:12:38.789Z,102884.03
2023-02-06T07:16:40.929Z,102901.31
2023-02-06T07:20:42.937Z,102909.69
2023-02-06T07:24:44.991Z,102908.28
2023-02-06T07:28:49.187Z,102920.50
2023-02-06T07:32:52.036Z,102926.69
2023-02-06T07:36:53.983Z,102923.63
2023-02-06T07:41:01.732Z,102912.75
2023-02-06T07:45:04.648Z,102902.97
2023-02-06T07:49:06.738Z,102903.59
2023-02-06T07:53:08.786Z,102904.81
2023-02-06T07:57:10.791Z,102913.81
2023-02-06T08:01:13.111Z,102925.19
2023-02-06T08:05:15.196Z,102918.00
2023-02-06T08:09:17.536Z,102912.56
2023-02-06T08:13:22.828Z,102911.22
2023-02-06T08:17:24.895Z,102905.19
2023-02-06T08:21:27.344Z,102908.31
2023-02-06T08:25:29.488Z,102922.84
2023-02-06T08:29:31.431Z,102919.56
2023-02-06T08:33:33.472Z,102930.38
2023-02-06T08:37:35.529Z,102927.28
2023-02-06T08:41:39.068Z,102924.53
2023-02-06T08:45:41.083Z,102919.56
2023-02-06T08:49:43.082Z,102927.91
2023-02-06T08:53:45.078Z,102925.72
2023-02-06T08:57:46.766Z,102928.03
2023-02-06T09:01:49.369Z,102924.59
2023-02-06T09:05:52.682Z,102926.78
2023-02-06T09:09:56.010Z,102922.00
2023-02-06T09:14:00.129Z,102924.78
2023-02-06T09:18:02.232Z,102924.72
2023-02-06T09:22:05.865Z,102939.22
2023-02-06T09:26:10.469Z,102938.38
2023-02-06T09:30:15.669Z,102939.72
2023-02-06T09:34:17.688Z,102938.31
2023-02-06T09:38:19.634Z,102951.34
2023-02-06T09:42:31.419Z,102953.47
2023-02-06T09:46:36.950Z,102952.38
2023-02-06T09:50:55.887Z,102942.44
2023-02-06T09:55:10.859Z,102946.75
2023-02-06T09:59:28.031Z,102965.81
2023-02-06T10:03:38.607Z,102945.41
2023-02-06T10:07:59.149Z,102941.31
2023-02-06T10:12:09.308Z,102949.34
2023-02-06T10:16:34.907Z,102939.84
2023-02-06T10:20:44.786Z,102934.31
2023-02-06T10:25:11.222Z,102930.06
2023-02-06T10:29:40.819Z,102931.88
2023-02-06T10:34:07.279Z,102935.84
2023-02-06T10:38:57.501Z,102938.56
2023-02-06T10:43:25.770Z,102924.94
2023-02-06T10:47:36.194Z,102915.28
2023-02-06T10:51:42.647Z,102916.00
2023-02-06T10:55:51.435Z,102917.66
2023-02-06T10:59:58.021Z,102926.06
2023-02-06T11:04:05.941Z,102911.00
2023-02-06T11:08:15.788Z,102907.50
2023-02-06T11:12:29.803Z,102912.81
2023-02-06T11:16:36.156Z,102915.38
2023-02-06T11:20:41.952Z,102913.03
2023-02-06T11:25:03.528Z,102921.84
2023-02-06T11:29:22.238Z,102925.59
2023-02-06T11:33:33.708Z,102933.72
2023-02-06T11:37:40.036Z,102935.63
2023-02-06T11:41:57.744Z,102940.94
2023-02-06T11:46:18.552Z,102945.75
2023-02-06T11:50:35.489Z,102951.63
2023-02-06T11:54:37.636Z,102957.44
2023-02-06T11:58:39.642Z,102965.16
2023-02-06T12:02:50.674Z,102961.31
2023-02-06T12:07:03.616Z,102969.97
2023-02-06T12:11:13.440Z,102963.38
2023-02-06T12:15:43.701Z,102968.94
2023-02-06T12:19:56.320Z,102953.69
2023-02-06T12:24:02.510Z,102955.84
2023-02-06T12:28:13.172Z,102955.34
2023-02-06T12:32:24.159Z,102952.28
2023-02-06T12:36:39.878Z,102945.53
2023-02-06T12:41:00.542Z,102942.69
2023-02-06T12:45:12.425Z,102937.97
2023-02-06T12:49:26.068Z,102943.78
2023-02-06T12:53:40.320Z,102949.78
2023-02-06T12:57:42.867Z,102948.44
2023-02-06T13:02:05.372Z,102944.75
2023-02-06T13:06:22.148Z,102943.28
2023-02-06T13:10:26.044Z,102956.09
2023-02-06T13:14:29.611Z,102966.13
2023-02-06T13:18:52.523Z,102958.38
2023-02-06T13:23:14.674Z,102956.06
2023-02-06T13:27:17.070Z,102957.56
2023-02-06T13:31:25.287Z,102946.13
2023-02-06T13:35:30.613Z,102942.16
2023-02-06T13:39:33.324Z,102953.31
2023-02-06T13:43:36.446Z,102948.88
2023-02-06T13:47:59.137Z,102943.59
2023-02-06T13:52:32.296Z,102924.78
2023-02-06T13:56:47.553Z,102924.69
2023-02-06T14:00:51.912Z,102934.38
2023-02-06T14:04:54.879Z,102949.97
2023-02-06T14:09:16.534Z,102945.41
2023-02-06T14:13:33.193Z,102946.59
2023-02-06T14:17:56.136Z,102944.00
2023-02-06T14:22:11.260Z,102935.09
2023-02-06T14:26:21.160Z,102941.84
2023-02-06T14:30:41.485Z,102937.88
2023-02-06T14:35:04.607Z,102928.63
2023-02-06T14:39:32.746Z,102939.81
2023-02-06T14:43:41.049Z,102937.97
2023-02-06T14:47:44.226Z,102940.97
2023-02-06T14:51:50.799Z,102945.16
2023-02-06T14:56:05.261Z,102949.09
2023-02-06T15:00:18.585Z,102958.59
2023-02-06T15:04:28.943Z,102954.13
2023-02-06T15:08:33.184Z,102952.16
2023-02-06T15:12:36.622Z,102947.03
2023-02-06T15:16:50.102Z,102942.34
2023-02-06T15:20:56.069Z,102942.03
2023-02-06T15:25:10.286Z,102944.16
2023-02-06T15:29:23.010Z,102941.91
2023-02-06T15:33:28.837Z,102939.53
2023-02-06T15:37:34.147Z,102939.78
2023-02-06T15:41:37.606Z,102941.63
2023-02-06T15:45:41.405Z,102936.28
2023-02-06T15:49:47.178Z,102935.84
2023-02-06T15:53:51.701Z,102945.94
2023-02-06T15:57:56.988Z,102962.94
2023-02-06T16:01:59.759Z,102960.34
2023-02-06T16:06:01.835Z,102955.63
2023-02-06T16:10:22.530Z,102955.22
2023-02-06T16:14:35.591Z,102957.97
2023-02-06T16:18:39.729Z,102966.97
2023-02-06T16:22:41.826Z,102964.81
2023-02-06T16:26:52.417Z,102974.03
2023-02-06T16:30:59.078Z,102968.66
2023-02-06T16:35:01.379Z,102957.81
2023-02-06T16:39:04.765Z,102964.44
2023-02-06T16:43:11.471Z,102970.09
2023-02-06T16:47:16.147Z,102966.66
2023-02-06T16:51:21.072Z,102970.66
2023-02-06T16:55:25.920Z,102963.38
2023-02-06T16:59:28.044Z,102966.34
2023-02-06T17:03:32.545Z,102962.50
2023-02-06T17:07:35.183Z,102969.03
2023-02-06T17:11:37.699Z,102968.16
2023-02-06T17:15:39.936Z,102957.69
2023-02-06T17:19:42.233Z,102950.69
2023-02-06T17:23:44.905Z,102948.63
2023-02-06T17:27:47.084Z,102946.88
2023-02-06T17:31:49.259Z,102932.41
2023-02-06T17:35:51.420Z,102937.56
2023-02-06T17:39:53.727Z,102933.84
2023-02-06T17:43:55.736Z,102943.66
2023-02-06T17:47:57.895Z,102946.31
2023-02-06T17:52:00.027Z,102934.22
2023-02-06T17:56:12.869Z,102937.47
2023-02-06T18:00:17.897Z,102923.88
2023-02-06T18:04:21.386Z,102926.69
2023-02-06T18:08:23.665Z,102923.50
2023-02-06T18:12:25.979Z,102934.75
2023-02-06T18:16:29.027Z,102929.06
2023-02-06T18:20:31.520Z,102924.56
2023-02-06T18:24:33.668Z,102913.31
2023-02-06T18:28:39.374Z,102906.91
2023-02-06T18:32:41.532Z,102913.25
2023-02-06T18:36:43.565Z,102922.84
2023-02-06T18:40:46.758Z,102920.66
2023-02-06T18:44:48.818Z,102927.81
2023-02-06T18:48:50.860Z,102938.22
2023-02-06T18:52:52.966Z,102945.41
2023-02-06T18:56:55.044Z,102965.09
2023-02-06T19:00:57.129Z,102981.31
2023-02-06T19:04:59.301Z,102970.13
2023-02-06T19:09:02.245Z,102960.41
2023-02-06T19:13:05.034Z,102962.66
2023-02-06T19:17:07.224Z,102956.56
2023-02-06T19:21:16.204Z,102964.25
2023-02-06T19:25:19.324Z,102978.44
2023-02-06T19:29:34.726Z,102992.63
2023-02-06T19:33:39.218Z,102993.06
2023-02-06T19:37:41.350Z,103002.38
2023-02-06T19:41:43.356Z,102994.56
2023-02-06T19:45:45.398Z,102993.31
2023-02-06T19:49:51.501Z,102997.53
2023-02-06T19:53:54.962Z,103010.06
2023-02-06T19:57:57.151Z,103015.22
2023-02-06T20:02:01.641Z,103015.94
2023-02-06T20:06:10.510Z,103023.16
2023-02-06T20:10:12.522Z,103033.00
2023-02-06T20:14:14.781Z,103020.81
2023-02-06T20:18:16.832Z,103027.25
2023-02-06T20:22:19.061Z,103017.28
2023-02-06T20:26:22.451Z,103011.78
2023-02-06T20:30:24.647Z,103015.09
2023-02-06T20:34:27.189Z,103009.59
2023-02-06T20:38:29.665Z,103014.72
2023-02-06T20:42:32.306Z,103021.09
2023-02-06T20:46:36.186Z,103021.34
2023-02-06T20:50:38.491Z,103018.72
2023-02-06T20:54:41.056Z,103042.75
2023-02-06T20:58:44.308Z,103039.16
2023-02-06T21:02:46.533Z,103047.16
2023-02-06T21:06:49.966Z,103039.94
2023-02-06T21:10:53.189Z,103040.34
2023-02-06T21:14:55.740Z,103042.84
2023-02-06T21:18:58.788Z,103038.00
2023-02-06T21:23:00.873Z,103061.03
2023-02-06T21:27:02.933Z,103053.03
2023-02-06T21:31:08.119Z,103070.19
2023-02-06T21:35:10.662Z,103058.09
2023-02-06T21:39:20.260Z,103045.56
2023-02-06T21:43:22.369Z,103047.41
2023-02-06T21:47:24.359Z,103042.66
2023-02-06T21:51:27.078Z,103031.75
2023-02-06T21:55:31.572Z,103037.19
2023-02-06T21:59:34.286Z,103034.56
2023-02-06T22:03:36.379Z,103035.75
2023-02-06T22:07:38.552Z,103032.00
2023-02-06T22:11:41.463Z,103021.22
2023-02-06T22:15:51.373Z,103010.75
2023-02-06T22:19:54.417Z,102991.25
2023-02-06T22:23:58.972Z,103003.25
2023-02-06T22:28:01.143Z,102994.19
2023-02-06T22:32:04.678Z,102979.75
2023-02-06T22:36:09.419Z,102977.47
2023-02-06T22:40:11.635Z,102971.50
2023-02-06T22:44:17.813Z,102976.03
2023-02-06T22:48:20.039Z,102954.31
2023-02-06T22:52:40.728Z,102945.97
2023-02-06T22:56:43.652Z,102943.66
2023-02-06T23:00:45.941Z,102947.59
2023-02-06T23:04:48.146Z,102947.56
2023-02-06T23:08:50.325Z,102970.66
2023-02-06T23:12:52.494Z,102981.41
2023-02-06T23:16:54.667Z,102974.88
2023-02-06T23:21:02.931Z,102970.09
2023-02-06T23:25:05.217Z,102970.31
2023-02-06T23:29:08.273Z,102974.19
2023-02-06T23:33:10.873Z,102970.88
2023-02-06T23:37:13.476Z,102979.50
2023-02-06T23:41:20.711Z,102978.34
2023-02-06T23:45:22.759Z,102973.00
2023-02-06T23:49:24.899Z,102966.91
2023-02-06T23:53:27.544Z,102964.50
2023-02-06T23:57:29.266Z,102974.59
